sensor_id;sensor_type;location;lat;lon;timestamp;P1;durP1;ratioP1;P2;durP2;ratioP2
65597;SDS011;52267;51.984;20.956;2023-02-28T00:01:32;19.90;;;10.20;;
65597;SDS011;52267;51.984;20.956;2023-02-28T00:04:00;20.00;;;10.40;;
65597;SDS011;52267;51.984;20.956;2023-02-28T00:06:27;17.40;;;9.70;;
65597;SDS011;52267;51.984;20.956;2023-02-28T00:08:54;21.40;;;10.90;;
65597;SDS011;52267;51.984;20.956;2023-02-28T00:11:22;21.50;;;9.30;;
65597;SDS011;52267;51.984;20.956;2023-02-28T00:13:49;23.60;;;11.10;;
65597;SDS011;52267;51.984;20.956;2023-02-28T00:16:19;22.30;;;11.80;;
65597;SDS011;52267;51.984;20.956;2023-02-28T00:21:16;20.70;;;10.70;;
65597;SDS011;52267;51.984;20.956;2023-02-28T00:23:44;24.20;;;12.10;;
65597;SDS011;52267;51.984;20.956;2023-02-28T00:26:11;28.80;;;13.30;;
65597;SDS011;52267;51.984;20.956;2023-02-28T00:28:39;20.20;;;11.60;;
65597;SDS011;52267;51.984;20.956;2023-02-28T00:31:06;25.50;;;12.20;;
65597;SDS011;52267;51.984;20.956;2023-02-28T00:33:33;27.80;;;12.70;;
65597;SDS011;52267;51.984;20.956;2023-02-28T00:36:04;23.00;;;11.80;;
65597;SDS011;52267;51.984;20.956;2023-02-28T00:38:33;29.00;;;12.60;;
65597;SDS011;52267;51.984;20.956;2023-02-28T00:41:00;29.30;;;13.80;;
65597;SDS011;52267;51.984;20.956;2023-02-28T00:43:35;24.00;;;11.20;;
65597;SDS011;52267;51.984;20.956;2023-02-28T00:46:04;26.40;;;12.80;;
65597;SDS011;52267;51.984;20.956;2023-02-28T00:48:32;20.20;;;12.70;;
65597;SDS011;52267;51.984;20.956;2023-02-28T00:51:02;21.50;;;11.80;;
65597;SDS011;52267;51.984;20.956;2023-02-28T00:53:29;23.70;;;12.60;;
65597;SDS011;52267;51.984;20.956;2023-02-28T00:55:56;27.80;;;13.10;;
65597;SDS011;52267;51.984;20.956;2023-02-28T00:58:24;24.60;;;11.50;;
65597;SDS011;52267;51.984;20.956;2023-02-28T01:00:51;22.10;;;11.80;;
65597;SDS011;52267;51.984;20.956;2023-02-28T01:03:20;23.30;;;11.20;;
65597;SDS011;52267;51.984;20.956;2023-02-28T01:05:47;18.60;;;10.90;;
65597;SDS011;52267;51.984;20.956;2023-02-28T01:08:14;22.10;;;10.60;;
65597;SDS011;52267;51.984;20.956;2023-02-28T01:10:42;20.20;;;10.10;;
65597;SDS011;52267;51.984;20.956;2023-02-28T01:13:09;22.20;;;10.60;;
65597;SDS011;52267;51.984;20.956;2023-02-28T01:15:48;18.10;;;11.10;;
65597;SDS011;52267;51.984;20.956;2023-02-28T01:18:18;19.10;;;9.30;;
65597;SDS011;52267;51.984;20.956;2023-02-28T01:20:45;19.90;;;9.70;;
65597;SDS011;52267;51.984;20.956;2023-02-28T01:23:12;16.20;;;8.60;;
65597;SDS011;52267;51.984;20.956;2023-02-28T01:25:39;19.20;;;9.50;;
65597;SDS011;52267;51.984;20.956;2023-02-28T01:28:07;16.40;;;8.60;;
65597;SDS011;52267;51.984;20.956;2023-02-28T01:30:34;16.70;;;9.30;;
65597;SDS011;52267;51.984;20.956;2023-02-28T01:33:01;18.50;;;9.90;;
65597;SDS011;52267;51.984;20.956;2023-02-28T01:35:28;14.50;;;8.60;;
65597;SDS011;52267;51.984;20.956;2023-02-28T01:37:55;20.40;;;8.90;;
65597;SDS011;52267;51.984;20.956;2023-02-28T01:40:22;22.00;;;10.50;;
65597;SDS011;52267;51.984;20.956;2023-02-28T01:42:49;18.70;;;9.70;;
65597;SDS011;52267;51.984;20.956;2023-02-28T01:47:49;13.40;;;8.30;;
65597;SDS011;52267;51.984;20.956;2023-02-28T01:50:24;15.20;;;7.50;;
65597;SDS011;52267;51.984;20.956;2023-02-28T01:52:57;19.30;;;9.20;;
65597;SDS011;52267;51.984;20.956;2023-02-28T01:55:28;15.70;;;8.50;;
65597;SDS011;52267;51.984;20.956;2023-02-28T01:57:58;14.20;;;7.80;;
65597;SDS011;52267;51.984;20.956;2023-02-28T02:00:29;18.10;;;9.70;;
65597;SDS011;52267;51.984;20.956;2023-02-28T02:03:04;19.00;;;9.10;;
65597;SDS011;52267;51.984;20.956;2023-02-28T02:05:36;18.90;;;9.90;;
65597;SDS011;52267;51.984;20.956;2023-02-28T02:08:08;16.90;;;8.90;;
65597;SDS011;52267;51.984;20.956;2023-02-28T02:11:07;17.10;;;7.90;;
65597;SDS011;52267;51.984;20.956;2023-02-28T02:16:27;15.10;;;7.60;;
65597;SDS011;52267;51.984;20.956;2023-02-28T02:24:49;15.50;;;8.40;;
65597;SDS011;52267;51.984;20.956;2023-02-28T02:31:10;14.60;;;8.50;;
65597;SDS011;52267;51.984;20.956;2023-02-28T02:34:22;12.60;;;7.60;;
65597;SDS011;52267;51.984;20.956;2023-02-28T02:37:03;12.00;;;7.80;;
65597;SDS011;52267;51.984;20.956;2023-02-28T02:39:36;16.30;;;8.60;;
65597;SDS011;52267;51.984;20.956;2023-02-28T02:42:13;16.70;;;9.20;;
65597;SDS011;52267;51.984;20.956;2023-02-28T02:44:51;13.40;;;8.10;;
65597;SDS011;52267;51.984;20.956;2023-02-28T02:47:24;12.60;;;8.10;;
65597;SDS011;52267;51.984;20.956;2023-02-28T02:49:55;14.80;;;8.60;;
65597;SDS011;52267;51.984;20.956;2023-02-28T02:52:30;13.10;;;7.90;;
65597;SDS011;52267;51.984;20.956;2023-02-28T02:55:03;13.50;;;7.70;;
65597;SDS011;52267;51.984;20.956;2023-02-28T02:57:36;14.80;;;8.00;;
65597;SDS011;52267;51.984;20.956;2023-02-28T03:00:16;15.60;;;8.10;;
65597;SDS011;52267;51.984;20.956;2023-02-28T03:02:47;16.40;;;8.00;;
65597;SDS011;52267;51.984;20.956;2023-02-28T03:05:33;15.60;;;8.20;;
65597;SDS011;52267;51.984;20.956;2023-02-28T03:08:05;16.30;;;7.80;;
65597;SDS011;52267;51.984;20.956;2023-02-28T03:14:19;13.90;;;8.50;;
65597;SDS011;52267;51.984;20.956;2023-02-28T03:26:12;14.30;;;7.40;;
65597;SDS011;52267;51.984;20.956;2023-02-28T03:36:41;13.90;;;8.20;;
65597;SDS011;52267;51.984;20.956;2023-02-28T03:39:16;14.90;;;8.50;;
65597;SDS011;52267;51.984;20.956;2023-02-28T03:41:51;16.30;;;8.70;;
65597;SDS011;52267;51.984;20.956;2023-02-28T03:44:25;15.70;;;8.10;;
65597;SDS011;52267;51.984;20.956;2023-02-28T03:47:12;14.30;;;8.80;;
65597;SDS011;52267;51.984;20.956;2023-02-28T03:49:49;15.80;;;8.30;;
65597;SDS011;52267;51.984;20.956;2023-02-28T03:52:27;18.00;;;9.00;;
65597;SDS011;52267;51.984;20.956;2023-02-28T03:55:01;15.40;;;8.10;;
65597;SDS011;52267;51.984;20.956;2023-02-28T04:00:32;17.10;;;8.40;;
65597;SDS011;52267;51.984;20.956;2023-02-28T04:03:02;16.40;;;8.80;;
65597;SDS011;52267;51.984;20.956;2023-02-28T04:05:30;18.00;;;8.80;;
65597;SDS011;52267;51.984;20.956;2023-02-28T04:08:06;13.90;;;8.40;;
65597;SDS011;52267;51.984;20.956;2023-02-28T04:10:34;14.60;;;8.30;;
65597;SDS011;52267;51.984;20.956;2023-02-28T04:13:01;15.60;;;8.50;;
65597;SDS011;52267;51.984;20.956;2023-02-28T04:15:28;16.10;;;8.60;;
65597;SDS011;52267;51.984;20.956;2023-02-28T04:17:55;12.90;;;8.00;;
65597;SDS011;52267;51.984;20.956;2023-02-28T04:20:22;14.30;;;7.70;;
65597;SDS011;52267;51.984;20.956;2023-02-28T04:22:49;17.70;;;9.00;;
65597;SDS011;52267;51.984;20.956;2023-02-28T04:25:16;14.50;;;8.40;;
65597;SDS011;52267;51.984;20.956;2023-02-28T04:27:43;17.60;;;8.90;;
65597;SDS011;52267;51.984;20.956;2023-02-28T04:30:11;15.30;;;8.70;;
65597;SDS011;52267;51.984;20.956;2023-02-28T04:32:39;17.60;;;8.50;;
65597;SDS011;52267;51.984;20.956;2023-02-28T04:35:06;18.00;;;8.90;;
65597;SDS011;52267;51.984;20.956;2023-02-28T04:37:34;12.80;;;8.30;;
65597;SDS011;52267;51.984;20.956;2023-02-28T04:40:03;17.20;;;9.20;;
65597;SDS011;52267;51.984;20.956;2023-02-28T04:42:31;16.80;;;8.60;;
65597;SDS011;52267;51.984;20.956;2023-02-28T04:45:02;19.30;;;9.00;;
65597;SDS011;52267;51.984;20.956;2023-02-28T04:47:30;15.10;;;8.50;;
65597;SDS011;52267;51.984;20.956;2023-02-28T04:49:57;16.00;;;8.30;;
65597;SDS011;52267;51.984;20.956;2023-02-28T04:52:24;19.40;;;9.70;;
65597;SDS011;52267;51.984;20.956;2023-02-28T04:54:51;18.60;;;9.00;;
65597;SDS011;52267;51.984;20.956;2023-02-28T04:57:18;17.50;;;9.50;;
65597;SDS011;52267;51.984;20.956;2023-02-28T04:59:45;14.80;;;8.90;;
65597;SDS011;52267;51.984;20.956;2023-02-28T05:02:12;20.70;;;9.80;;
65597;SDS011;52267;51.984;20.956;2023-02-28T05:04:39;19.10;;;10.80;;
65597;SDS011;52267;51.984;20.956;2023-02-28T05:07:06;22.10;;;10.70;;
65597;SDS011;52267;51.984;20.956;2023-02-28T05:09:33;16.40;;;9.70;;
65597;SDS011;52267;51.984;20.956;2023-02-28T05:12:01;17.40;;;10.20;;
65597;SDS011;52267;51.984;20.956;2023-02-28T05:14:28;19.10;;;9.90;;
65597;SDS011;52267;51.984;20.956;2023-02-28T05:16:55;21.40;;;11.00;;
65597;SDS011;52267;51.984;20.956;2023-02-28T05:19:22;21.50;;;11.00;;
65597;SDS011;52267;51.984;20.956;2023-02-28T05:21:52;17.90;;;10.20;;
65597;SDS011;52267;51.984;20.956;2023-02-28T05:24:20;17.60;;;10.00;;
65597;SDS011;52267;51.984;20.956;2023-02-28T05:26:52;23.40;;;11.80;;
65597;SDS011;52267;51.984;20.956;2023-02-28T05:29:20;21.00;;;10.80;;
65597;SDS011;52267;51.984;20.956;2023-02-28T05:31:47;18.90;;;10.60;;
65597;SDS011;52267;51.984;20.956;2023-02-28T05:34:14;20.30;;;11.10;;
65597;SDS011;52267;51.984;20.956;2023-02-28T05:36:43;22.80;;;11.90;;
65597;SDS011;52267;51.984;20.956;2023-02-28T05:39:10;17.80;;;10.50;;
65597;SDS011;52267;51.984;20.956;2023-02-28T05:41:40;21.50;;;12.40;;
65597;SDS011;52267;51.984;20.956;2023-02-28T05:44:09;22.30;;;12.00;;
65597;SDS011;52267;51.984;20.956;2023-02-28T05:46:36;22.80;;;12.20;;
65597;SDS011;52267;51.984;20.956;2023-02-28T05:49:03;19.90;;;11.40;;
65597;SDS011;52267;51.984;20.956;2023-02-28T05:51:30;19.70;;;11.30;;
65597;SDS011;52267;51.984;20.956;2023-02-28T05:54:01;26.90;;;12.00;;
65597;SDS011;52267;51.984;20.956;2023-02-28T05:56:28;20.30;;;11.60;;
65597;SDS011;52267;51.984;20.956;2023-02-28T05:58:55;18.30;;;10.60;;
65597;SDS011;52267;51.984;20.956;2023-02-28T06:01:30;21.20;;;11.60;;
65597;SDS011;52267;51.984;20.956;2023-02-28T06:04:00;23.80;;;11.20;;
65597;SDS011;52267;51.984;20.956;2023-02-28T06:06:28;27.30;;;11.40;;
65597;SDS011;52267;51.984;20.956;2023-02-28T06:08:56;18.00;;;10.90;;
65597;SDS011;52267;51.984;20.956;2023-02-28T06:11:23;23.70;;;12.10;;
65597;SDS011;52267;51.984;20.956;2023-02-28T06:13:55;18.60;;;11.90;;
65597;SDS011;52267;51.984;20.956;2023-02-28T06:16:27;19.90;;;12.30;;
65597;SDS011;52267;51.984;20.956;2023-02-28T06:18:57;28.70;;;13.00;;
65597;SDS011;52267;51.984;20.956;2023-02-28T06:21:26;42.20;;;18.90;;
65597;SDS011;52267;51.984;20.956;2023-02-28T06:23:57;163.50;;;60.70;;
65597;SDS011;52267;51.984;20.956;2023-02-28T06:26:25;165.50;;;64.90;;
65597;SDS011;52267;51.984;20.956;2023-02-28T06:28:52;161.50;;;65.10;;
65597;SDS011;52267;51.984;20.956;2023-02-28T06:31:20;218.60;;;76.70;;
65597;SDS011;52267;51.984;20.956;2023-02-28T06:33:48;148.10;;;59.70;;
65597;SDS011;52267;51.984;20.956;2023-02-28T06:36:17;113.10;;;44.60;;
65597;SDS011;52267;51.984;20.956;2023-02-28T06:38:44;81.30;;;34.40;;
65597;SDS011;52267;51.984;20.956;2023-02-28T06:41:11;58.20;;;24.50;;
65597;SDS011;52267;51.984;20.956;2023-02-28T06:43:41;49.10;;;22.40;;
65597;SDS011;52267;51.984;20.956;2023-02-28T06:46:12;43.40;;;18.70;;
65597;SDS011;52267;51.984;20.956;2023-02-28T06:51:12;37.00;;;15.30;;
65597;SDS011;52267;51.984;20.956;2023-02-28T06:53:41;43.80;;;21.00;;
65597;SDS011;52267;51.984;20.956;2023-02-28T06:56:11;47.20;;;23.30;;
65597;SDS011;52267;51.984;20.956;2023-02-28T06:58:39;36.00;;;18.30;;
65597;SDS011;52267;51.984;20.956;2023-02-28T07:01:08;36.80;;;19.00;;
65597;SDS011;52267;51.984;20.956;2023-02-28T07:03:35;34.10;;;17.90;;
65597;SDS011;52267;51.984;20.956;2023-02-28T07:06:04;31.90;;;17.30;;
65597;SDS011;52267;51.984;20.956;2023-02-28T07:08:34;33.20;;;17.30;;
65597;SDS011;52267;51.984;20.956;2023-02-28T07:11:03;24.70;;;14.20;;
65597;SDS011;52267;51.984;20.956;2023-02-28T07:13:30;25.90;;;13.00;;
65597;SDS011;52267;51.984;20.956;2023-02-28T07:15:59;24.90;;;12.90;;
65597;SDS011;52267;51.984;20.956;2023-02-28T07:18:27;22.80;;;11.90;;
65597;SDS011;52267;51.984;20.956;2023-02-28T07:20:55;18.00;;;9.60;;
65597;SDS011;52267;51.984;20.956;2023-02-28T07:23:23;17.10;;;10.20;;
65597;SDS011;52267;51.984;20.956;2023-02-28T07:25:51;21.40;;;11.20;;
65597;SDS011;52267;51.984;20.956;2023-02-28T07:28:18;16.70;;;8.70;;
65597;SDS011;52267;51.984;20.956;2023-02-28T07:30:45;19.40;;;9.70;;
65597;SDS011;52267;51.984;20.956;2023-02-28T07:33:12;14.80;;;6.60;;
65597;SDS011;52267;51.984;20.956;2023-02-28T07:35:40;19.60;;;10.10;;
65597;SDS011;52267;51.984;20.956;2023-02-28T07:38:07;10.20;;;4.60;;
65597;SDS011;52267;51.984;20.956;2023-02-28T07:40:35;11.70;;;6.80;;
65597;SDS011;52267;51.984;20.956;2023-02-28T07:43:03;13.90;;;8.60;;
65597;SDS011;52267;51.984;20.956;2023-02-28T07:45:30;12.30;;;6.90;;
65597;SDS011;52267;51.984;20.956;2023-02-28T07:48:01;10.20;;;6.90;;
65597;SDS011;52267;51.984;20.956;2023-02-28T07:50:28;17.20;;;10.40;;
65597;SDS011;52267;51.984;20.956;2023-02-28T07:52:58;17.90;;;9.10;;
65597;SDS011;52267;51.984;20.956;2023-02-28T07:55:26;12.40;;;7.10;;
65597;SDS011;52267;51.984;20.956;2023-02-28T07:57:53;13.20;;;7.00;;
65597;SDS011;52267;51.984;20.956;2023-02-28T08:00:21;15.40;;;7.30;;
65597;SDS011;52267;51.984;20.956;2023-02-28T08:02:49;13.40;;;6.80;;
65597;SDS011;52267;51.984;20.956;2023-02-28T08:05:16;10.40;;;5.80;;
65597;SDS011;52267;51.984;20.956;2023-02-28T08:07:44;8.70;;;5.70;;
65597;SDS011;52267;51.984;20.956;2023-02-28T08:10:11;13.30;;;8.00;;
65597;SDS011;52267;51.984;20.956;2023-02-28T08:12:38;11.70;;;6.90;;
65597;SDS011;52267;51.984;20.956;2023-02-28T08:15:05;13.50;;;8.20;;
65597;SDS011;52267;51.984;20.956;2023-02-28T08:17:33;13.80;;;8.60;;
65597;SDS011;52267;51.984;20.956;2023-02-28T08:20:00;15.50;;;8.90;;
65597;SDS011;52267;51.984;20.956;2023-02-28T08:22:27;13.90;;;8.30;;
65597;SDS011;52267;51.984;20.956;2023-02-28T08:24:54;14.60;;;8.50;;
65597;SDS011;52267;51.984;20.956;2023-02-28T08:27:21;6.40;;;4.60;;
65597;SDS011;52267;51.984;20.956;2023-02-28T08:29:48;10.70;;;6.80;;
65597;SDS011;52267;51.984;20.956;2023-02-28T08:32:15;10.20;;;6.20;;
65597;SDS011;52267;51.984;20.956;2023-02-28T08:34:42;11.70;;;8.00;;
65597;SDS011;52267;51.984;20.956;2023-02-28T08:37:10;10.50;;;6.20;;
65597;SDS011;52267;51.984;20.956;2023-02-28T08:39:37;12.60;;;7.30;;
65597;SDS011;52267;51.984;20.956;2023-02-28T08:42:04;12.50;;;7.20;;
65597;SDS011;52267;51.984;20.956;2023-02-28T08:44:32;11.60;;;6.90;;
65597;SDS011;52267;51.984;20.956;2023-02-28T08:46:59;13.30;;;8.90;;
65597;SDS011;52267;51.984;20.956;2023-02-28T08:49:26;9.70;;;6.00;;
65597;SDS011;52267;51.984;20.956;2023-02-28T08:51:53;14.40;;;8.70;;
65597;SDS011;52267;51.984;20.956;2023-02-28T08:54:24;11.80;;;7.00;;
65597;SDS011;52267;51.984;20.956;2023-02-28T08:56:52;11.70;;;7.00;;
65597;SDS011;52267;51.984;20.956;2023-02-28T08:59:19;12.80;;;6.80;;
65597;SDS011;52267;51.984;20.956;2023-02-28T09:01:46;9.90;;;5.50;;
65597;SDS011;52267;51.984;20.956;2023-02-28T09:04:13;13.00;;;8.30;;
65597;SDS011;52267;51.984;20.956;2023-02-28T09:06:40;13.10;;;7.80;;
65597;SDS011;52267;51.984;20.956;2023-02-28T09:09:07;13.10;;;8.20;;
65597;SDS011;52267;51.984;20.956;2023-02-28T09:11:36;13.70;;;8.40;;
65597;SDS011;52267;51.984;20.956;2023-02-28T09:14:03;12.90;;;7.80;;
65597;SDS011;52267;51.984;20.956;2023-02-28T09:16:32;13.00;;;8.40;;
65597;SDS011;52267;51.984;20.956;2023-02-28T09:18:59;9.50;;;6.70;;
65597;SDS011;52267;51.984;20.956;2023-02-28T09:21:29;9.90;;;4.80;;
65597;SDS011;52267;51.984;20.956;2023-02-28T09:23:57;9.50;;;6.70;;
65597;SDS011;52267;51.984;20.956;2023-02-28T09:26:26;12.70;;;7.70;;
65597;SDS011;52267;51.984;20.956;2023-02-28T09:28:54;13.20;;;6.70;;
65597;SDS011;52267;51.984;20.956;2023-02-28T09:31:24;10.60;;;6.60;;
65597;SDS011;52267;51.984;20.956;2023-02-28T09:33:55;11.70;;;7.10;;
65597;SDS011;52267;51.984;20.956;2023-02-28T09:36:24;10.40;;;6.30;;
65597;SDS011;52267;51.984;20.956;2023-02-28T09:38:52;11.70;;;6.40;;
65597;SDS011;52267;51.984;20.956;2023-02-28T09:41:24;12.00;;;6.40;;
65597;SDS011;52267;51.984;20.956;2023-02-28T09:44:00;13.10;;;7.50;;
65597;SDS011;52267;51.984;20.956;2023-02-28T09:46:33;15.20;;;8.60;;
65597;SDS011;52267;51.984;20.956;2023-02-28T09:49:12;15.80;;;9.30;;
65597;SDS011;52267;51.984;20.956;2023-02-28T09:51:56;10.90;;;6.70;;
65597;SDS011;52267;51.984;20.956;2023-02-28T09:54:28;16.00;;;8.90;;
65597;SDS011;52267;51.984;20.956;2023-02-28T09:57:21;8.50;;;5.10;;
65597;SDS011;52267;51.984;20.956;2023-02-28T10:00:15;11.30;;;7.40;;
65597;SDS011;52267;51.984;20.956;2023-02-28T10:06:35;8.80;;;5.30;;
65597;SDS011;52267;51.984;20.956;2023-02-28T10:11:57;10.90;;;6.30;;
65597;SDS011;52267;51.984;20.956;2023-02-28T10:14:30;12.20;;;7.90;;
65597;SDS011;52267;51.984;20.956;2023-02-28T10:20:07;10.10;;;6.20;;
65597;SDS011;52267;51.984;20.956;2023-02-28T10:22:56;10.20;;;7.20;;
65597;SDS011;52267;51.984;20.956;2023-02-28T10:25:47;11.90;;;6.60;;
65597;SDS011;52267;51.984;20.956;2023-02-28T10:28:19;8.80;;;5.90;;
65597;SDS011;52267;51.984;20.956;2023-02-28T10:30:51;10.50;;;7.30;;
65597;SDS011;52267;51.984;20.956;2023-02-28T10:33:32;13.20;;;7.00;;
65597;SDS011;52267;51.984;20.956;2023-02-28T10:36:04;11.40;;;6.60;;
65597;SDS011;52267;51.984;20.956;2023-02-28T10:38:35;14.20;;;7.40;;
65597;SDS011;52267;51.984;20.956;2023-02-28T10:41:12;10.70;;;6.40;;
65597;SDS011;52267;51.984;20.956;2023-02-28T10:43:42;11.50;;;6.40;;
65597;SDS011;52267;51.984;20.956;2023-02-28T10:46:16;12.90;;;8.00;;
65597;SDS011;52267;51.984;20.956;2023-02-28T10:49:02;13.40;;;8.00;;
65597;SDS011;52267;51.984;20.956;2023-02-28T10:51:36;11.30;;;6.50;;
65597;SDS011;52267;51.984;20.956;2023-02-28T10:54:05;9.00;;;5.70;;
65597;SDS011;52267;51.984;20.956;2023-02-28T10:56:32;12.30;;;8.00;;
65597;SDS011;52267;51.984;20.956;2023-02-28T11:04:36;12.70;;;7.90;;
65597;SDS011;52267;51.984;20.956;2023-02-28T11:09:51;12.30;;;7.50;;
65597;SDS011;52267;51.984;20.956;2023-02-28T11:14:58;13.90;;;8.70;;
65597;SDS011;52267;51.984;20.956;2023-02-28T11:17:29;9.60;;;6.30;;
65597;SDS011;52267;51.984;20.956;2023-02-28T11:20:01;12.80;;;6.70;;
65597;SDS011;52267;51.984;20.956;2023-02-28T11:22:33;14.30;;;9.40;;
65597;SDS011;52267;51.984;20.956;2023-02-28T11:25:09;16.90;;;9.60;;
65597;SDS011;52267;51.984;20.956;2023-02-28T11:27:48;13.60;;;10.30;;
65597;SDS011;52267;51.984;20.956;2023-02-28T11:30:31;11.60;;;7.90;;
65597;SDS011;52267;51.984;20.956;2023-02-28T11:36:26;10.90;;;8.90;;
65597;SDS011;52267;51.984;20.956;2023-02-28T11:38:59;12.60;;;8.10;;
65597;SDS011;52267;51.984;20.956;2023-02-28T11:41:38;12.00;;;8.10;;
65597;SDS011;52267;51.984;20.956;2023-02-28T11:44:58;10.00;;;5.60;;
65597;SDS011;52267;51.984;20.956;2023-02-28T11:47:41;16.40;;;9.00;;
65597;SDS011;52267;51.984;20.956;2023-02-28T11:59:43;7.60;;;5.90;;
65597;SDS011;52267;51.984;20.956;2023-02-28T12:05:08;12.60;;;8.20;;
65597;SDS011;52267;51.984;20.956;2023-02-28T12:11:05;12.50;;;8.30;;
65597;SDS011;52267;51.984;20.956;2023-02-28T12:16:42;13.30;;;8.40;;
65597;SDS011;52267;51.984;20.956;2023-02-28T12:24:50;10.60;;;6.70;;
65597;SDS011;52267;51.984;20.956;2023-02-28T12:27:41;12.70;;;7.20;;
65597;SDS011;52267;51.984;20.956;2023-02-28T12:30:27;12.40;;;6.50;;
65597;SDS011;52267;51.984;20.956;2023-02-28T12:33:17;9.50;;;5.70;;
65597;SDS011;52267;51.984;20.956;2023-02-28T12:35:58;11.40;;;7.20;;
65597;SDS011;52267;51.984;20.956;2023-02-28T12:38:36;11.00;;;7.50;;
65597;SDS011;52267;51.984;20.956;2023-02-28T12:41:19;13.40;;;8.10;;
65597;SDS011;52267;51.984;20.956;2023-02-28T12:44:09;10.20;;;6.80;;
65597;SDS011;52267;51.984;20.956;2023-02-28T12:46:54;12.60;;;6.80;;
65597;SDS011;52267;51.984;20.956;2023-02-28T12:52:16;10.20;;;6.90;;
65597;SDS011;52267;51.984;20.956;2023-02-28T12:54:51;11.30;;;7.30;;
65597;SDS011;52267;51.984;20.956;2023-02-28T13:00:36;12.00;;;7.20;;
65597;SDS011;52267;51.984;20.956;2023-02-28T13:03:15;8.90;;;6.20;;
65597;SDS011;52267;51.984;20.956;2023-02-28T13:06:05;8.40;;;5.10;;
65597;SDS011;52267;51.984;20.956;2023-02-28T13:09:02;13.10;;;8.00;;
65597;SDS011;52267;51.984;20.956;2023-02-28T13:11:37;12.90;;;7.90;;
65597;SDS011;52267;51.984;20.956;2023-02-28T13:22:43;12.20;;;7.50;;
65597;SDS011;52267;51.984;20.956;2023-02-28T13:28:02;10.70;;;5.80;;
65597;SDS011;52267;51.984;20.956;2023-02-28T13:33:29;8.90;;;5.50;;
65597;SDS011;52267;51.984;20.956;2023-02-28T13:36:23;10.80;;;7.40;;
65597;SDS011;52267;51.984;20.956;2023-02-28T13:53:06;13.80;;;9.10;;
65597;SDS011;52267;51.984;20.956;2023-02-28T13:55:48;11.70;;;7.20;;
65597;SDS011;52267;51.984;20.956;2023-02-28T13:58:55;15.70;;;8.70;;
65597;SDS011;52267;51.984;20.956;2023-02-28T14:04:56;12.50;;;8.50;;
65597;SDS011;52267;51.984;20.956;2023-02-28T14:07:44;12.40;;;9.10;;
65597;SDS011;52267;51.984;20.956;2023-02-28T14:10:27;14.80;;;8.50;;
65597;SDS011;52267;51.984;20.956;2023-02-28T14:21:29;12.40;;;8.10;;
65597;SDS011;52267;51.984;20.956;2023-02-28T14:27:32;13.20;;;7.20;;
65597;SDS011;52267;51.984;20.956;2023-02-28T14:30:37;17.70;;;10.10;;
65597;SDS011;52267;51.984;20.956;2023-02-28T14:38:53;13.30;;;8.20;;
65597;SDS011;52267;51.984;20.956;2023-02-28T14:41:28;17.90;;;10.90;;
65597;SDS011;52267;51.984;20.956;2023-02-28T14:43:59;15.40;;;9.00;;
65597;SDS011;52267;51.984;20.956;2023-02-28T14:46:46;17.40;;;9.60;;
65597;SDS011;52267;51.984;20.956;2023-02-28T14:49:37;14.90;;;8.90;;
65597;SDS011;52267;51.984;20.956;2023-02-28T14:54:44;14.60;;;9.40;;
65597;SDS011;52267;51.984;20.956;2023-02-28T14:57:44;17.80;;;9.80;;
65597;SDS011;52267;51.984;20.956;2023-02-28T15:00:24;17.90;;;10.10;;
65597;SDS011;52267;51.984;20.956;2023-02-28T15:02:54;15.90;;;9.30;;
65597;SDS011;52267;51.984;20.956;2023-02-28T15:05:28;16.90;;;9.80;;
65597;SDS011;52267;51.984;20.956;2023-02-28T15:08:16;18.50;;;9.70;;
65597;SDS011;52267;51.984;20.956;2023-02-28T15:11:06;16.70;;;11.40;;
65597;SDS011;52267;51.984;20.956;2023-02-28T15:13:53;16.40;;;9.30;;
65597;SDS011;52267;51.984;20.956;2023-02-28T15:16:34;19.40;;;10.50;;
65597;SDS011;52267;51.984;20.956;2023-02-28T15:19:14;17.30;;;11.00;;
65597;SDS011;52267;51.984;20.956;2023-02-28T15:21:49;18.20;;;10.50;;
65597;SDS011;52267;51.984;20.956;2023-02-28T15:24:20;17.10;;;9.10;;
65597;SDS011;52267;51.984;20.956;2023-02-28T15:26:57;15.60;;;10.30;;
65597;SDS011;52267;51.984;20.956;2023-02-28T15:29:27;17.60;;;10.10;;
65597;SDS011;52267;51.984;20.956;2023-02-28T15:32:05;14.90;;;9.40;;
65597;SDS011;52267;51.984;20.956;2023-02-28T15:34:37;18.10;;;10.30;;
65597;SDS011;52267;51.984;20.956;2023-02-28T15:37:25;15.90;;;9.90;;
65597;SDS011;52267;51.984;20.956;2023-02-28T15:39:56;19.60;;;10.80;;
65597;SDS011;52267;51.984;20.956;2023-02-28T15:42:28;16.10;;;9.50;;
65597;SDS011;52267;51.984;20.956;2023-02-28T15:44:56;15.20;;;9.70;;
65597;SDS011;52267;51.984;20.956;2023-02-28T15:47:26;15.00;;;10.60;;
65597;SDS011;52267;51.984;20.956;2023-02-28T15:50:17;20.50;;;10.00;;
65597;SDS011;52267;51.984;20.956;2023-02-28T15:52:45;15.50;;;10.30;;
65597;SDS011;52267;51.984;20.956;2023-02-28T15:55:22;16.50;;;9.70;;
65597;SDS011;52267;51.984;20.956;2023-02-28T15:57:55;17.20;;;12.10;;
65597;SDS011;52267;51.984;20.956;2023-02-28T16:00:26;20.10;;;9.80;;
65597;SDS011;52267;51.984;20.956;2023-02-28T16:02:54;19.80;;;10.00;;
65597;SDS011;52267;51.984;20.956;2023-02-28T16:05:28;17.20;;;9.30;;
65597;SDS011;52267;51.984;20.956;2023-02-28T16:08:06;16.80;;;9.40;;
65597;SDS011;52267;51.984;20.956;2023-02-28T16:10:41;16.40;;;8.80;;
65597;SDS011;52267;51.984;20.956;2023-02-28T16:13:11;16.80;;;10.50;;
65597;SDS011;52267;51.984;20.956;2023-02-28T16:15:42;18.20;;;9.70;;
65597;SDS011;52267;51.984;20.956;2023-02-28T16:18:11;16.80;;;9.20;;
65597;SDS011;52267;51.984;20.956;2023-02-28T16:20:39;17.10;;;9.90;;
65597;SDS011;52267;51.984;20.956;2023-02-28T16:23:07;24.40;;;9.90;;
65597;SDS011;52267;51.984;20.956;2023-02-28T16:25:37;16.10;;;9.30;;
65597;SDS011;52267;51.984;20.956;2023-02-28T16:28:17;16.50;;;10.50;;
65597;SDS011;52267;51.984;20.956;2023-02-28T16:30:51;16.30;;;9.40;;
65597;SDS011;52267;51.984;20.956;2023-02-28T16:33:19;17.40;;;10.00;;
65597;SDS011;52267;51.984;20.956;2023-02-28T16:35:47;15.90;;;9.10;;
65597;SDS011;52267;51.984;20.956;2023-02-28T16:38:14;16.60;;;9.40;;
65597;SDS011;52267;51.984;20.956;2023-02-28T16:40:42;17.90;;;9.20;;
65597;SDS011;52267;51.984;20.956;2023-02-28T16:43:20;16.20;;;9.40;;
65597;SDS011;52267;51.984;20.956;2023-02-28T16:45:54;18.50;;;9.30;;
65597;SDS011;52267;51.984;20.956;2023-02-28T16:48:26;17.10;;;10.60;;
65597;SDS011;52267;51.984;20.956;2023-02-28T16:50:53;21.80;;;10.80;;
65597;SDS011;52267;51.984;20.956;2023-02-28T16:53:20;18.70;;;11.10;;
65597;SDS011;52267;51.984;20.956;2023-02-28T16:55:49;18.00;;;10.60;;
65597;SDS011;52267;51.984;20.956;2023-02-28T16:58:18;20.50;;;11.40;;
65597;SDS011;52267;51.984;20.956;2023-02-28T17:00:48;24.80;;;13.20;;
65597;SDS011;52267;51.984;20.956;2023-02-28T17:03:23;24.40;;;13.40;;
65597;SDS011;52267;51.984;20.956;2023-02-28T17:05:53;22.80;;;11.50;;
65597;SDS011;52267;51.984;20.956;2023-02-28T17:08:21;22.20;;;11.00;;
65597;SDS011;52267;51.984;20.956;2023-02-28T17:10:48;26.10;;;11.20;;
65597;SDS011;52267;51.984;20.956;2023-02-28T17:13:16;31.00;;;13.90;;
65597;SDS011;52267;51.984;20.956;2023-02-28T17:15:44;33.10;;;18.30;;
65597;SDS011;52267;51.984;20.956;2023-02-28T17:18:18;32.30;;;16.10;;